Time;durP1;ratioP1;P1;durP2;ratioP2;P2;SDS_P1;SDS_P2;PMS_P1;PMS_P2;Temp;Humidity;BMP_temperature;BMP_pressure;BME280_temperature;BME280_humidity;BME280_pressure;Samples;Min_cycle;Max_cycle;Signal;HPM_P1;HPM_P2
2023/10/05 00:04:41;;;;;;;8.45;2.47;;;13.00;99.90;;;;;;5052705;28;20028;-83
2023/10/05 00:07:11;;;;;;;4.53;2.35;;;13.00;99.90;;;;;;5034465;28;20481;-83
2023/10/05 00:09:38;;;;;;;3.13;2.10;;;13.00;99.90;;;;;;5037290;28;20108;-83
2023/10/05 00:12:07;;;;;;;6.55;1.95;;;13.00;99.90;;;;;;5050302;28;20036;-84
2023/10/05 00:14:35;;;;;;;3.70;2.35;;;13.00;99.90;;;;;;5053677;28;20040;-84
2023/10/05 00:17:02;;;;;;;6.45;2.08;;;13.00;99.90;;;;;;5051012;28;20203;-83
2023/10/05 00:19:29;;;;;;;5.47;2.00;;;13.00;99.90;;;;;;5056277;28;20049;-82
2023/10/05 00:21:56;;;;;;;7.72;2.40;;;13.00;99.90;;;;;;5051980;28;20017;-82
2023/10/05 00:24:46;;;;;;;5.82;1.88;;;13.00;99.90;;;;;;5031626;28;20037;-84
2023/10/05 00:27:09;;;;;;;5.18;2.08;;;13.00;99.90;;;;;;5046308;28;20079;-83
2023/10/05 00:29:41;;;;;;;3.35;2.00;;;13.00;99.90;;;;;;5052993;28;20033;-84
2023/10/05 00:32:52;;;;;;;4.65;2.15;;;13.00;99.90;;;;;;5050921;28;20060;-83
2023/10/05 00:35:16;;;;;;;6.90;2.00;;;13.00;99.90;;;;;;5048261;28;20120;-82
2023/10/05 00:37:47;;;;;;;6.20;2.38;;;13.00;99.90;;;;;;5053515;28;20064;-82
2023/10/05 00:40:23;;;;;;;4.57;2.15;;;13.00;99.90;;;;;;5032505;28;20079;-82
2023/10/05 00:42:50;;;;;;;8.48;2.25;;;13.10;99.90;;;;;;5037578;28;20021;-83
2023/10/05 00:45:17;;;;;;;4.18;1.95;;;13.10;99.90;;;;;;5031277;28;20386;-83
2023/10/05 00:47:43;;;;;;;3.58;1.90;;;13.10;99.90;;;;;;5036497;28;20021;-82
2023/10/05 00:50:10;;;;;;;6.15;2.20;;;13.10;99.90;;;;;;5035083;28;20117;-83
2023/10/05 00:52:37;;;;;;;5.07;2.03;;;13.10;99.90;;;;;;5033717;28;20060;-81
2023/10/05 00:55:10;;;;;;;4.25;1.23;;;13.10;99.90;;;;;;5033305;28;20057;-82
2023/10/05 00:57:36;;;;;;;6.35;1.90;;;13.10;99.90;;;;;;5031462;28;20276;-81
2023/10/05 01:02:32;;;;;;;4.97;2.15;;;13.20;99.90;;;;;;5045176;28;20021;-83
2023/10/05 01:05:25;;;;;;;5.80;2.00;;;13.20;99.90;;;;;;5032744;28;20465;-83
2023/10/05 01:07:55;;;;;;;7.43;1.90;;;13.20;99.90;;;;;;5052021;28;20029;-83
2023/10/05 01:10:27;;;;;;;5.75;2.17;;;13.20;99.90;;;;;;5033213;28;20013;-81
2023/10/05 01:12:54;;;;;;;6.40;2.17;;;13.20;99.90;;;;;;5033393;28;20039;-83
2023/10/05 01:15:22;;;;;;;4.55;1.63;;;13.20;99.90;;;;;;5032386;28;20087;-84
2023/10/05 01:17:51;;;;;;;7.68;2.05;;;13.20;99.90;;;;;;5033079;28;20021;-83
2023/10/05 01:22:55;;;;;;;5.18;1.83;;;13.20;99.90;;;;;;5051845;28;20040;-84
2023/10/05 01:25:21;;;;;;;5.10;1.70;;;13.20;99.90;;;;;;5029874;28;20029;-82
2023/10/05 01:27:51;;;;;;;5.65;2.13;;;13.20;99.90;;;;;;5031868;28;20492;-83
2023/10/05 01:30:17;;;;;;;6.43;1.50;;;13.20;99.90;;;;;;5033160;28;20054;-83
2023/10/05 01:32:44;;;;;;;3.17;1.88;;;13.20;99.90;;;;;;5031454;28;20025;-83
2023/10/05 01:35:15;;;;;;;7.25;1.20;;;13.20;99.90;;;;;;5033723;28;20508;-83
2023/10/05 01:37:45;;;;;;;4.00;1.80;;;13.20;99.90;;;;;;5029394;28;20041;-82
2023/10/05 01:40:16;;;;;;;5.43;1.75;;;13.20;99.90;;;;;;5033611;28;20492;-82
2023/10/05 01:42:43;;;;;;;3.88;1.60;;;13.20;99.90;;;;;;5030253;28;20013;-83
2023/10/05 01:45:10;;;;;;;4.00;1.80;;;13.20;99.90;;;;;;5031788;28;20540;-82
2023/10/05 01:47:36;;;;;;;6.57;1.67;;;13.20;99.90;;;;;;5036275;28;20472;-81
2023/10/05 01:50:02;;;;;;;3.83;1.98;;;13.20;99.90;;;;;;5033710;28;20039;-82
2023/10/05 01:52:29;;;;;;;6.93;1.75;;;13.20;99.90;;;;;;5052923;28;20049;-83
2023/10/05 01:54:55;;;;;;;4.72;2.13;;;13.20;99.90;;;;;;5031714;28;20029;-84
2023/10/05 01:57:20;;;;;;;3.83;1.67;;;13.20;99.90;;;;;;5032216;28;20037;-83
2023/10/05 01:59:46;;;;;;;4.68;2.10;;;13.20;99.90;;;;;;5034057;28;20059;-83
2023/10/05 02:02:15;;;;;;;9.82;2.28;;;13.20;99.90;;;;;;5051903;28;20024;-85
2023/10/05 02:04:45;;;;;;;3.83;1.45;;;13.20;99.90;;;;;;5035117;28;20021;-83
2023/10/05 02:07:11;;;;;;;7.57;1.55;;;13.20;99.90;;;;;;5031961;28;20059;-83
2023/10/05 02:09:38;;;;;;;4.38;1.73;;;13.20;99.90;;;;;;5033656;28;20104;-83
2023/10/05 02:12:06;;;;;;;5.60;1.92;;;13.20;99.90;;;;;;5033468;28;20051;-83
2023/10/05 02:14:33;;;;;;;5.18;1.63;;;13.10;99.90;;;;;;5032687;28;20039;-83
2023/10/05 02:17:00;;;;;;;6.75;2.03;;;13.20;99.90;;;;;;5034103;28;20029;-83
2023/10/05 02:19:26;;;;;;;4.18;1.98;;;13.10;99.90;;;;;;5031838;28;20021;-83
2023/10/05 02:21:54;;;;;;;4.68;1.90;;;13.10;99.90;;;;;;5032400;28;20025;-83
2023/10/05 02:24:22;;;;;;;6.28;1.58;;;13.10;99.90;;;;;;5029437;28;20021;-83
2023/10/05 02:29:25;;;;;;;9.50;2.10;;;13.10;99.90;;;;;;5050812;28;20424;-83
2023/10/05 02:34:22;;;;;;;3.65;1.70;;;13.10;99.90;;;;;;5050814;28;20067;-82
2023/10/05 02:36:50;;;;;;;5.97;1.80;;;13.10;99.90;;;;;;5051387;28;20036;-83
2023/10/05 02:39:16;;;;;;;5.72;1.75;;;13.10;99.90;;;;;;5033253;28;20047;-83
2023/10/05 02:41:43;;;;;;;2.55;1.65;;;13.00;99.90;;;;;;5034369;28;20021;-84
2023/10/05 02:47:13;;;;;;;5.03;1.55;;;13.00;99.90;;;;;;5045448;28;20611;-82
2023/10/05 02:49:47;;;;;;;4.15;1.33;;;13.00;99.90;;;;;;5033773;28;20048;-84
2023/10/05 02:52:16;;;;;;;4.60;1.63;;;13.00;99.90;;;;;;5032338;28;20016;-82
2023/10/05 02:54:47;;;;;;;6.15;1.85;;;13.00;99.90;;;;;;5048354;28;20024;-83
2023/10/05 02:57:16;;;;;;;6.25;1.70;;;13.00;99.90;;;;;;5032544;28;20017;-83
2023/10/05 02:59:42;;;;;;;5.22;1.95;;;13.00;99.90;;;;;;5032312;28;20050;-83
2023/10/05 03:02:09;;;;;;;2.13;1.40;;;12.90;99.90;;;;;;5032456;28;20080;-82
2023/10/05 03:04:47;;;;;;;3.47;1.60;;;12.90;99.90;;;;;;5032892;28;20032;-83
2023/10/05 03:07:15;;;;;;;5.35;1.83;;;13.00;99.90;;;;;;5029470;28;20033;-83
2023/10/05 03:09:42;;;;;;;4.90;1.70;;;12.90;99.90;;;;;;5030636;28;20773;-84
2023/10/05 03:12:09;;;;;;;6.00;1.85;;;13.00;99.90;;;;;;5034014;28;20047;-83
2023/10/05 03:14:35;;;;;;;5.53;1.40;;;13.00;99.90;;;;;;5051535;28;20025;-82
2023/10/05 03:17:05;;;;;;;6.70;1.98;;;13.00;99.90;;;;;;5054659;28;20021;-83
2023/10/05 03:19:36;;;;;;;7.28;1.98;;;13.00;99.90;;;;;;5033791;28;20025;-83
2023/10/05 03:22:05;;;;;;;3.30;1.33;;;13.00;99.90;;;;;;5034631;28;20109;-84
2023/10/05 03:24:33;;;;;;;6.57;1.65;;;13.00;99.90;;;;;;5033862;28;20093;-82
2023/10/05 03:27:03;;;;;;;4.45;1.45;;;13.00;99.90;;;;;;5035633;28;20025;-81
2023/10/05 03:29:29;;;;;;;5.43;1.48;;;13.00;99.90;;;;;;5032925;28;20163;-83
2023/10/05 03:32:04;;;;;;;4.18;1.33;;;13.00;99.90;;;;;;5055137;28;20064;-83
2023/10/05 03:34:31;;;;;;;7.20;2.10;;;13.00;99.90;;;;;;5035080;28;20764;-81
2023/10/05 03:36:59;;;;;;;5.32;1.80;;;13.10;99.90;;;;;;5034696;28;20097;-83
2023/10/05 03:39:28;;;;;;;4.75;1.80;;;13.10;99.90;;;;;;5034384;28;20108;-82
2023/10/05 03:41:54;;;;;;;6.85;2.33;;;13.10;99.90;;;;;;5032307;28;20081;-83
2023/10/05 03:44:19;;;;;;;6.35;2.33;;;13.10;99.90;;;;;;5035734;28;20055;-84
2023/10/05 03:46:46;;;;;;;3.33;1.73;;;13.10;99.90;;;;;;5032638;28;20041;-83
2023/10/05 03:49:17;;;;;;;8.18;2.00;;;13.10;99.90;;;;;;5034999;28;20021;-83
2023/10/05 03:51:49;;;;;;;5.47;1.90;;;13.10;99.90;;;;;;5053529;28;20028;-83
2023/10/05 03:54:19;;;;;;;5.30;2.03;;;13.10;99.90;;;;;;5053307;28;20515;-83
2023/10/05 03:56:46;;;;;;;6.07;1.92;;;13.20;99.90;;;;;;5053836;28;20034;-81
2023/10/05 03:59:12;;;;;;;10.15;2.00;;;13.10;99.90;;;;;;5035952;28;20036;-84
2023/10/05 04:01:38;;;;;;;5.35;1.85;;;13.10;99.90;;;;;;5037793;28;20021;-82
2023/10/05 04:04:08;;;;;;;4.95;1.65;;;13.10;99.90;;;;;;5033969;28;20576;-82
2023/10/05 04:06:36;;;;;;;3.67;1.55;;;13.10;99.90;;;;;;5037359;28;20048;-82
2023/10/05 04:09:03;;;;;;;4.03;1.58;;;13.20;99.90;;;;;;5037667;28;20024;-85
2023/10/05 04:11:33;;;;;;;6.10;2.05;;;13.20;99.90;;;;;;5035257;28;20698;-82
2023/10/05 04:14:01;;;;;;;3.65;2.08;;;13.10;99.90;;;;;;5035544;28;20056;-84
2023/10/05 04:16:28;;;;;;;3.78;1.83;;;13.20;99.90;;;;;;5037397;28;20036;-82
2023/10/05 04:18:54;;;;;;;5.50;1.85;;;13.20;99.90;;;;;;5051688;28;20020;-83
2023/10/05 04:21:23;;;;;;;3.92;1.55;;;13.10;99.90;;;;;;5050377;28;20010;-82
2023/10/05 04:23:52;;;;;;;5.07;1.92;;;13.20;99.90;;;;;;5054190;28;20062;-83
2023/10/05 04:26:20;;;;;;;8.43;2.08;;;13.10;99.90;;;;;;5053231;28;20557;-82
2023/10/05 04:28:53;;;;;;;7.43;1.98;;;13.20;99.90;;;;;;5056155;28;20021;-82
2023/10/05 04:31:22;;;;;;;5.35;1.95;;;13.20;99.90;;;;;;5037636;28;20017;-82
2023/10/05 04:33:50;;;;;;;5.43;1.80;;;13.20;99.90;;;;;;5056698;28;20106;-81
2023/10/05 04:36:17;;;;;;;5.53;1.63;;;13.20;99.90;;;;;;5039328;28;20020;-83
2023/10/05 04:38:43;;;;;;;5.22;1.85;;;13.20;99.90;;;;;;5036362;28;20025;-82
2023/10/05 04:41:12;;;;;;;6.45;2.13;;;13.20;99.90;;;;;;5036673;28;20044;-83
2023/10/05 04:43:38;;;;;;;4.75;1.30;;;13.20;99.90;;;;;;5036910;28;20028;-82
2023/10/05 04:46:05;;;;;;;4.18;1.67;;;13.20;99.90;;;;;;5038417;28;20558;-85
2023/10/05 04:48:31;;;;;;;5.03;2.50;;;13.20;99.90;;;;;;5035611;28;20055;-84
2023/10/05 04:51:00;;;;;;;9.38;2.55;;;13.10;99.90;;;;;;5041398;28;20561;-84
2023/10/05 04:53:27;;;;;;;4.18;1.50;;;13.20;99.90;;;;;;5038775;28;20058;-86
2023/10/05 04:56:00;;;;;;;6.22;2.17;;;13.10;99.90;;;;;;5044019;28;20048;-85
2023/10/05 04:58:53;;;;;;;5.35;2.00;;;13.10;99.90;;;;;;5040251;28;20518;-86
2023/10/05 05:01:32;;;;;;;3.70;1.70;;;13.00;99.90;;;;;;5057700;28;20104;-86
2023/10/05 05:04:13;;;;;;;7.28;1.75;;;13.00;99.90;;;;;;5033617;28;20035;-86
2023/10/05 05:06:41;;;;;;;5.05;2.10;;;12.90;99.90;;;;;;5032227;28;20018;-86
2023/10/05 05:09:11;;;;;;;7.20;1.63;;;12.90;99.90;;;;;;5052683;28;20025;-85
2023/10/05 05:11:38;;;;;;;5.93;2.13;;;12.90;99.90;;;;;;5032220;28;20075;-86
2023/10/05 05:14:05;;;;;;;7.68;1.92;;;12.80;99.90;;;;;;5049909;28;20103;-87
2023/10/05 05:16:31;;;;;;;10.38;2.38;;;12.80;99.90;;;;;;5031374;28;20033;-88
2023/10/05 05:18:56;;;;;;;9.15;1.98;;;12.80;99.90;;;;;;5031588;28;20074;-86
2023/10/05 05:21:22;;;;;;;5.97;1.98;;;12.80;99.90;;;;;;5031517;28;20021;-88
2023/10/05 05:23:47;;;;;;;8.02;2.33;;;12.80;99.90;;;;;;5034412;28;20570;-86
2023/10/05 05:26:14;;;;;;;4.32;2.15;;;12.80;99.90;;;;;;5032232;28;20021;-86
2023/10/05 05:28:43;;;;;;;6.13;2.60;;;12.70;99.90;;;;;;5030354;28;20541;-86
2023/10/05 05:31:13;;;;;;;11.18;2.33;;;12.80;99.90;;;;;;5033614;28;20148;-86
2023/10/05 05:33:39;;;;;;;6.28;2.53;;;12.80;99.90;;;;;;5031150;28;20075;-86
2023/10/05 05:36:11;;;;;;;6.97;2.38;;;12.70;99.90;;;;;;5032462;28;20028;-87
2023/10/05 05:38:39;;;;;;;6.40;2.38;;;12.70;99.90;;;;;;5032548;28;20048;-89
2023/10/05 05:41:12;;;;;;;8.45;2.75;;;12.70;99.90;;;;;;5029207;28;20045;-86
2023/10/05 05:43:41;;;;;;;6.75;2.55;;;12.80;99.90;;;;;;5030479;28;20108;-86
2023/10/05 05:46:12;;;;;;;4.22;2.47;;;12.80;99.90;;;;;;5047720;28;20063;-86
2023/10/05 05:48:48;;;;;;;7.07;2.80;;;12.70;99.90;;;;;;5047492;28;20033;-86
2023/10/05 05:51:14;;;;;;;7.40;2.38;;;12.70;99.90;;;;;;5048987;28;20481;-87
2023/10/05 05:53:44;;;;;;;5.03;2.10;;;12.70;99.90;;;;;;5046651;28;20022;-89
2023/10/05 05:56:19;;;;;;;4.32;2.10;;;12.70;99.90;;;;;;5049340;28;20021;-87
2023/10/05 05:58:50;;;;;;;4.55;1.98;;;12.70;99.90;;;;;;5048477;28;20031;-87
2023/10/05 06:01:16;;;;;;;4.07;2.22;;;12.70;99.90;;;;;;5046892;28;20112;-87
2023/10/05 06:03:49;;;;;;;4.43;1.75;;;12.70;99.90;;;;;;5047563;28;20029;-87
2023/10/05 06:06:16;;;;;;;5.85;2.58;;;12.70;99.90;;;;;;5029293;28;20035;-86
2023/10/05 06:08:42;;;;;;;4.80;1.80;;;12.70;99.90;;;;;;5028992;28;20034;-87
2023/10/05 06:11:08;;;;;;;5.10;2.33;;;12.70;99.90;;;;;;5027202;28;20037;-87
2023/10/05 06:13:37;;;;;;;7.80;2.50;;;12.80;99.90;;;;;;5029919;28;20032;-87
2023/10/05 06:16:09;;;;;;;4.40;2.13;;;12.70;99.90;;;;;;5030702;28;20489;-87
2023/10/05 06:18:35;;;;;;;4.95;2.15;;;12.70;99.90;;;;;;5033044;28;20046;-89
2023/10/05 06:21:01;;;;;;;3.83;1.83;;;12.70;99.90;;;;;;5038944;28;20020;-86
2023/10/05 06:23:26;;;;;;;5.93;2.33;;;12.70;99.90;;;;;;5048717;28;20025;-86
2023/10/05 06:25:53;;;;;;;3.55;2.33;;;12.70;99.90;;;;;;5029861;28;20428;-86
2023/10/05 06:28:19;;;;;;;2.42;1.75;;;12.70;99.90;;;;;;5030233;28;20665;-86
2023/10/05 06:30:44;;;;;;;3.33;2.10;;;12.70;99.90;;;;;;5028982;28;20029;-85
2023/10/05 06:33:10;;;;;;;4.68;2.30;;;12.80;99.90;;;;;;5029384;28;20074;-87
2023/10/05 06:35:36;;;;;;;3.33;2.33;;;12.80;99.90;;;;;;5046775;28;20104;-87
2023/10/05 06:38:03;;;;;;;4.30;2.22;;;12.80;99.90;;;;;;5029647;28;20025;-88
2023/10/05 06:40:29;;;;;;;2.42;1.80;;;12.80;99.90;;;;;;5046932;28;20356;-87
2023/10/05 06:42:57;;;;;;;5.68;2.30;;;12.80;99.90;;;;;;5030029;28;20032;-87
2023/10/05 06:45:23;;;;;;;4.00;1.95;;;12.80;99.90;;;;;;5027871;28;20397;-86
2023/10/05 06:47:50;;;;;;;3.13;1.98;;;12.80;99.90;;;;;;5048962;28;20120;-87
2023/10/05 06:50:16;;;;;;;5.20;1.73;;;12.80;99.90;;;;;;5029808;28;20031;-87
2023/10/05 06:52:43;;;;;;;2.50;1.55;;;12.80;99.90;;;;;;5029257;28;20392;-87
2023/10/05 06:55:13;;;;;;;1.20;1.05;;;12.80;99.90;;;;;;5030680;28;20052;-86
2023/10/05 06:57:45;;;;;;;0.98;0.85;;;12.80;99.90;;;;;;5027770;28;20021;-86
2023/10/05 07:00:16;;;;;;;2.10;0.70;;;12.80;99.90;;;;;;5029375;28;20036;-86
2023/10/05 07:02:49;;;;;;;2.30;1.00;;;12.80;99.90;;;;;;5047357;28;20057;-86
2023/10/05 07:05:16;;;;;;;0.88;0.75;;;12.80;99.90;;;;;;5029553;28;20029;-87
2023/10/05 07:07:41;;;;;;;0.50;0.50;;;12.80;99.90;;;;;;5028683;28;20044;-85
2023/10/05 07:10:09;;;;;;;0.88;0.50;;;12.80;99.90;;;;;;5047264;28;20117;-87
2023/10/05 07:12:35;;;;;;;1.45;0.70;;;12.80;99.90;;;;;;5031135;28;20025;-88
2023/10/05 07:15:02;;;;;;;0.47;0.47;;;12.80;99.90;;;;;;5031786;28;20569;-87
2023/10/05 07:17:29;;;;;;;1.23;0.30;;;12.80;99.90;;;;;;5033611;28;20024;-87
2023/10/05 07:19:54;;;;;;;0.82;0.32;;;12.80;99.90;;;;;;5029461;28;20094;-87
2023/10/05 07:22:22;;;;;;;0.90;0.47;;;12.90;99.90;;;;;;5033480;28;20049;-88
2023/10/05 07:24:48;;;;;;;1.15;0.40;;;12.80;99.90;;;;;;5032768;28;20475;-89
2023/10/05 07:27:13;;;;;;;0.50;0.50;;;12.80;99.90;;;;;;5051030;28;20493;-87
2023/10/05 07:29:44;;;;;;;1.35;0.50;;;12.90;99.90;;;;;;5033859;28;20025;-87
2023/10/05 07:32:11;;;;;;;1.13;0.60;;;12.90;99.90;;;;;;5034019;28;20546;-88
2023/10/05 07:34:37;;;;;;;1.30;0.60;;;12.90;99.90;;;;;;5037487;28;20032;-87
2023/10/05 07:37:03;;;;;;;0.43;0.40;;;12.90;99.90;;;;;;5033350;28;20037;-87
2023/10/05 07:39:28;;;;;;;1.10;0.50;;;12.90;99.90;;;;;;5033448;28;20096;-87
2023/10/05 07:41:54;;;;;;;0.93;0.52;;;12.90;99.90;;;;;;5034357;28;20029;-87
2023/10/05 07:44:20;;;;;;;0.57;0.38;;;12.90;99.90;;;;;;5031705;28;20456;-87
2023/10/05 07:46:46;;;;;;;1.13;0.50;;;12.90;99.90;;;;;;5033515;28;20047;-87
2023/10/05 07:49:13;;;;;;;1.05;0.43;;;13.00;99.90;;;;;;5032942;28;20056;-87
2023/10/05 07:51:39;;;;;;;1.00;0.35;;;13.00;99.90;;;;;;5033486;28;20111;-87
2023/10/05 07:54:05;;;;;;;0.70;0.50;;;13.00;99.90;;;;;;5032806;28;20140;-87
2023/10/05 07:56:32;;;;;;;0.60;0.38;;;13.00;99.90;;;;;;5032917;28;20021;-87
2023/10/05 07:58:58;;;;;;;1.30;0.50;;;13.10;99.90;;;;;;5030911;28;20463;-87
2023/10/05 08:01:25;;;;;;;0.43;0.43;;;13.10;99.90;;;;;;5033262;28;20218;-87
2023/10/05 08:03:51;;;;;;;2.17;1.08;;;13.10;99.90;;;;;;5032840;28;20112;-87
2023/10/05 08:06:17;;;;;;;1.23;1.02;;;13.20;99.90;;;;;;5034242;28;20112;-87
2023/10/05 08:08:43;;;;;;;1.38;0.70;;;13.20;99.90;;;;;;5038261;28;20021;-89
2023/10/05 08:11:12;;;;;;;2.58;1.15;;;13.20;99.90;;;;;;5056404;28;20102;-87
2023/10/05 08:13:37;;;;;;;3.28;0.85;;;13.30;99.90;;;;;;5052025;28;20070;-87
2023/10/05 08:16:03;;;;;;;0.90;0.90;;;13.30;99.90;;;;;;5033719;28;20033;-84
2023/10/05 08:18:29;;;;;;;2.25;0.93;;;13.30;99.90;;;;;;5030986;28;20021;-87
2023/10/05 08:20:54;;;;;;;0.93;0.70;;;13.40;99.90;;;;;;5032824;28;20021;-88
2023/10/05 08:23:20;;;;;;;1.60;0.68;;;13.40;99.90;;;;;;5032023;28;20028;-87
2023/10/05 08:25:46;;;;;;;3.22;1.02;;;13.50;99.90;;;;;;5032786;28;20040;-87
2023/10/05 08:28:12;;;;;;;0.80;0.70;;;13.50;99.90;;;;;;5032558;28;20570;-88
2023/10/05 08:30:45;;;;;;;1.70;0.68;;;13.60;99.90;;;;;;5032517;28;20024;-87
2023/10/05 08:33:19;;;;;;;1.83;0.70;;;13.60;99.90;;;;;;5030602;28;20052;-88
2023/10/05 08:35:44;;;;;;;2.28;0.80;;;13.70;99.90;;;;;;5031287;28;20027;-86
2023/10/05 08:38:15;;;;;;;3.00;0.95;;;13.70;99.90;;;;;;5032462;28;20029;-87
2023/10/05 08:40:42;;;;;;;0.95;0.88;;;13.70;99.90;;;;;;5030494;28;20071;-87
2023/10/05 08:43:10;;;;;;;0.98;0.70;;;13.80;99.90;;;;;;5049227;28;20893;-87
2023/10/05 08:45:46;;;;;;;0.55;0.50;;;13.80;99.90;;;;;;5028454;28;20025;-87
2023/10/05 08:48:22;;;;;;;1.95;0.50;;;13.90;99.90;;;;;;5030424;28;20345;-87
2023/10/05 08:50:55;;;;;;;1.30;0.70;;;13.80;99.90;;;;;;5028637;28;20029;-88
2023/10/05 08:53:21;;;;;;;3.20;0.80;;;13.90;99.90;;;;;;5048655;28;20025;-86
2023/10/05 08:55:49;;;;;;;0.43;0.40;;;13.90;99.90;;;;;;5028507;28;20492;-86
2023/10/05 08:58:18;;;;;;;2.25;0.80;;;14.00;99.90;;;;;;5028893;28;20131;-85
2023/10/05 09:00:46;;;;;;;1.58;0.60;;;14.00;99.90;;;;;;5032421;28;20032;-86
2023/10/05 09:03:30;;;;;;;0.50;0.40;;;14.10;99.90;;;;;;5027029;28;20028;-86
2023/10/05 09:06:21;;;;;;;1.17;0.75;;;14.10;99.90;;;;;;5043610;28;20098;-88
2023/10/05 09:08:52;;;;;;;0.65;0.63;;;14.10;99.90;;;;;;5027029;28;21733;-86
2023/10/05 09:11:32;;;;;;;0.70;0.57;;;14.20;99.90;;;;;;5032032;28;20028;-88
2023/10/05 09:14:19;;;;;;;2.08;0.60;;;14.30;99.90;;;;;;5025757;28;20033;-86
2023/10/05 09:16:45;;;;;;;;;;;14.40;99.90;;;;;;5026585;28;20025;-87
2023/10/05 09:19:13;;;;;;;2.60;0.57;;;14.40;99.90;;;;;;5028086;28;19954;-86
2023/10/05 09:21:59;;;;;;;1.48;0.65;;;14.50;99.90;;;;;;5028814;28;20021;-85
2023/10/05 09:24:25;;;;;;;2.20;0.70;;;14.60;99.90;;;;;;5031240;28;20025;-85
2023/10/05 09:26:57;;;;;;;2.88;1.13;;;14.70;99.90;;;;;;5046775;28;20035;-85
2023/10/05 09:29:28;;;;;;;0.75;0.60;;;14.60;99.90;;;;;;5031542;28;20082;-86
2023/10/05 09:31:54;;;;;;;3.17;1.02;;;14.70;99.90;;;;;;5028198;28;20496;-84
2023/10/05 09:34:44;;;;;;;2.67;0.70;;;14.70;99.90;;;;;;5040497;28;20119;-84
2023/10/05 09:37:11;;;;;;;6.13;1.23;;;14.80;99.90;;;;;;5044019;28;20025;-86
2023/10/05 09:39:46;;;;;;;6.88;1.27;;;14.80;99.90;;;;;;5050817;28;20033;-83
2023/10/05 09:42:15;;;;;;;5.63;1.58;;;14.80;99.90;;;;;;5050835;28;20604;-84
2023/10/05 09:44:46;;;;;;;7.97;1.13;;;14.80;99.90;;;;;;5032576;28;20025;-83
2023/10/05 09:47:14;;;;;;;3.28;0.90;;;14.80;99.90;;;;;;5036839;28;20558;-87
2023/10/05 09:49:40;;;;;;;7.57;1.35;;;14.80;99.90;;;;;;5050336;28;20021;-84
2023/10/05 09:52:08;;;;;;;1.48;0.77;;;14.90;99.90;;;;;;5053870;28;20143;-85
2023/10/05 09:54:36;;;;;;;2.60;1.23;;;14.90;99.90;;;;;;5033811;28;20066;-85
2023/10/05 09:57:10;;;;;;;4.00;1.00;;;15.00;99.90;;;;;;5032237;28;20029;-85
2023/10/05 09:59:37;;;;;;;3.20;1.17;;;15.10;99.90;;;;;;5049720;28;20028;-85
2023/10/05 10:02:04;;;;;;;2.03;0.70;;;15.20;99.90;;;;;;5056741;28;20155;-85
2023/10/05 10:04:36;;;;;;;3.00;1.00;;;15.20;99.90;;;;;;5032161;28;20103;-83
2023/10/05 10:07:15;;;;;;;2.70;0.98;;;15.30;99.90;;;;;;5031839;28;20115;-84
2023/10/05 10:09:43;;;;;;;4.35;1.25;;;15.40;99.90;;;;;;5035195;28;20029;-84
2023/10/05 10:12:11;;;;;;;2.88;0.98;;;15.40;99.90;;;;;;5030793;28;20634;-85
2023/10/05 10:14:41;;;;;;;4.90;0.90;;;15.40;99.90;;;;;;5031162;28;20511;-86
2023/10/05 10:17:24;;;;;;;3.40;1.05;;;15.40;99.90;;;;;;5035339;28;20025;-87
2023/10/05 10:19:55;;;;;;;4.18;1.40;;;15.40;99.90;;;;;;5031545;28;20036;-84
2023/10/05 10:22:28;;;;;;;5.75;1.40;;;15.40;99.90;;;;;;5030788;28;20588;-83
2023/10/05 10:24:56;;;;;;;3.67;0.88;;;15.40;99.90;;;;;;5028945;28;20081;-83
2023/10/05 10:27:27;;;;;;;3.38;1.23;;;15.40;99.90;;;;;;5030595;28;20071;-85
2023/10/05 10:29:56;;;;;;;6.15;1.48;;;15.50;99.90;;;;;;5051689;28;20013;-83
2023/10/05 10:32:24;;;;;;;3.75;1.40;;;15.70;99.90;;;;;;5048634;28;20500;-87
2023/10/05 10:34:52;;;;;;;9.10;2.47;;;15.80;99.90;;;;;;5032477;28;20044;-84
2023/10/05 10:37:42;;;;;;;2.38;1.10;;;15.90;99.90;;;;;;5047874;28;20102;-84
2023/10/05 10:40:25;;;;;;;4.30;1.40;;;16.00;99.90;;;;;;5033273;28;20028;-84
2023/10/05 10:45:46;;;;;;;5.55;1.50;;;16.20;99.90;;;;;;5048322;28;20608;-85
2023/10/05 10:48:20;;;;;;;5.22;1.58;;;16.10;99.90;;;;;;5029626;28;20039;-85
2023/10/05 10:50:47;;;;;;;3.53;0.80;;;16.10;99.90;;;;;;5019339;28;20036;-84
2023/10/05 10:53:17;;;;;;;5.43;1.23;;;16.10;99.90;;;;;;5031943;28;20116;-85
2023/10/05 10:56:03;;;;;;;4.95;1.40;;;16.00;99.90;;;;;;5050920;28;20025;-84
2023/10/05 10:58:31;;;;;;;4.65;1.85;;;15.80;99.90;;;;;;5047400;28;20032;-85
2023/10/05 11:01:04;;;;;;;9.73;1.92;;;15.80;99.90;;;;;;5049318;28;20017;-84
2023/10/05 11:03:30;;;;;;;7.53;1.73;;;15.70;99.90;;;;;;5032155;28;20024;-84
2023/10/05 11:05:58;;;;;;;4.63;1.30;;;15.70;99.90;;;;;;5029166;28;20029;-84
2023/10/05 11:08:24;;;;;;;4.35;1.00;;;15.70;99.90;;;;;;5044403;28;20385;-84
2023/10/05 11:11:00;;;;;;;4.97;1.83;;;15.80;99.90;;;;;;5028400;28;20037;-85
2023/10/05 11:13:27;;;;;;;8.48;1.88;;;15.90;99.90;;;;;;5028027;28;20091;-85
2023/10/05 11:16:00;;;;;;;4.97;1.45;;;16.00;99.90;;;;;;5027212;28;20025;-84
2023/10/05 11:18:27;;;;;;;4.68;1.25;;;16.00;99.90;;;;;;5028332;28;20021;-84
2023/10/05 11:20:53;;;;;;;6.35;1.55;;;16.00;99.90;;;;;;5029529;28;20452;-85
2023/10/05 11:23:25;;;;;;;1.95;1.08;;;16.10;99.90;;;;;;5031022;28;20028;-84
2023/10/05 11:26:17;;;;;;;6.43;1.40;;;16.10;99.90;;;;;;5028453;28;20025;-85
2023/10/05 11:28:46;;;;;;;8.18;2.00;;;16.10;99.90;;;;;;5046044;28;20025;-85
2023/10/05 11:31:12;;;;;;;9.93;1.95;;;16.20;99.90;;;;;;5028055;28;20028;-83
2023/10/05 11:33:41;;;;;;;4.03;1.15;;;16.30;99.90;;;;;;5029442;28;20017;-83
2023/10/05 11:36:29;;;;;;;6.00;1.50;;;16.40;99.90;;;;;;5044768;28;20017;-84
2023/10/05 11:38:57;;;;;;;3.72;1.05;;;16.40;99.90;;;;;;5045703;28;20112;-83
2023/10/05 11:41:28;;;;;;;3.22;1.13;;;16.40;99.90;;;;;;5026029;28;20017;-82
2023/10/05 11:43:55;;;;;;;17.60;1.73;;;16.40;99.90;;;;;;5026578;28;20026;-85
2023/10/05 11:46:44;;;;;;;5.82;1.02;;;16.50;99.90;;;;;;5028930;28;20029;-84
2023/10/05 11:49:10;;;;;;;5.18;1.27;;;16.50;99.90;;;;;;5029430;28;20029;-84
2023/10/05 11:51:42;;;;;;;4.35;1.02;;;16.60;99.90;;;;;;5031567;28;20043;-85
2023/10/05 11:54:09;;;;;;;3.28;0.95;;;16.60;99.90;;;;;;5029389;28;20037;-85
2023/10/05 11:56:35;;;;;;;4.30;1.70;;;16.50;99.90;;;;;;5032739;28;20548;-83
2023/10/05 11:59:00;;;;;;;5.55;1.17;;;16.40;99.90;;;;;;5033004;28;20034;-83
2023/10/05 12:01:27;;;;;;;3.88;1.05;;;16.40;99.90;;;;;;5054346;28;20032;-83
2023/10/05 12:03:55;;;;;;;5.40;2.00;;;16.30;99.90;;;;;;5035842;28;20099;-86
2023/10/05 12:06:25;;;;;;;2.35;1.25;;;16.10;99.90;;;;;;5038023;28;20025;-83
2023/10/05 12:09:00;;;;;;;5.72;1.17;;;15.90;99.90;;;;;;5049345;28;20013;-83
2023/10/05 12:11:26;;;;;;;2.75;1.15;;;15.80;99.90;;;;;;5051037;28;20112;-83
2023/10/05 12:13:58;;;;;;;4.35;1.42;;;15.70;99.90;;;;;;5034949;28;20598;-83
2023/10/05 12:16:32;;;;;;;2.78;1.20;;;15.60;99.90;;;;;;5035651;28;20133;-84
2023/10/05 12:19:09;;;;;;;4.78;1.02;;;15.50;99.90;;;;;;5033549;28;20098;-82
2023/10/05 12:21:34;;;;;;;6.68;1.35;;;15.30;99.90;;;;;;5035475;28;20388;-83
2023/10/05 12:24:03;;;;;;;4.63;1.05;;;15.30;99.90;;;;;;5036747;28;20021;-85
2023/10/05 12:26:28;;;;;;;7.82;1.80;;;15.30;99.90;;;;;;5035791;28;20049;-84
2023/10/05 12:28:54;;;;;;;4.28;1.45;;;15.40;99.90;;;;;;5044837;28;20548;-84
2023/10/05 12:31:21;;;;;;;6.43;1.80;;;15.50;99.90;;;;;;5032866;28;20016;-83
2023/10/05 12:33:50;;;;;;;2.97;1.17;;;15.50;99.90;;;;;;5031819;28;20464;-86
2023/10/05 12:36:16;;;;;;;4.57;1.08;;;15.60;99.90;;;;;;5048604;28;20070;-84
2023/10/05 12:38:43;;;;;;;6.53;1.52;;;15.70;99.90;;;;;;5049826;28;20102;-83
2023/10/05 12:41:15;;;;;;;4.60;0.90;;;15.90;99.90;;;;;;5028422;28;20022;-83
2023/10/05 12:43:45;;;;;;;6.38;1.30;;;16.00;99.90;;;;;;5032027;28;20040;-82
2023/10/05 12:46:11;;;;;;;3.38;1.17;;;16.00;99.90;;;;;;5043380;28;20146;-85
2023/10/05 12:48:40;;;;;;;4.00;1.58;;;15.90;99.90;;;;;;5057101;28;20599;-83
2023/10/05 12:51:07;;;;;;;6.15;1.17;;;15.80;99.90;;;;;;5048136;28;20021;-84
2023/10/05 12:53:33;;;;;;;7.88;0.98;;;15.70;99.90;;;;;;5045993;28;20551;-84
2023/10/05 12:56:01;;;;;;;3.47;1.00;;;15.70;99.90;;;;;;5033313;28;20028;-85
2023/10/05 12:58:27;;;;;;;3.40;1.15;;;15.70;99.90;;;;;;5032481;28;20017;-84
2023/10/05 13:00:53;;;;;;;4.40;0.95;;;15.80;99.90;;;;;;5031637;28;20104;-83
2023/10/05 13:03:24;;;;;;;4.43;1.10;;;15.90;99.90;;;;;;5029420;28;20132;-85
2023/10/05 13:05:51;;;;;;;7.20;1.42;;;16.00;99.90;;;;;;5031434;28;20025;-85
2023/10/05 13:08:17;;;;;;;6.63;1.67;;;16.20;99.90;;;;;;5031372;28;20128;-83
2023/10/05 13:10:43;;;;;;;2.67;0.88;;;16.40;99.90;;;;;;5031685;28;20150;-82
2023/10/05 13:13:19;;;;;;;3.53;1.58;;;16.50;99.90;;;;;;5029275;28;20273;-82
2023/10/05 13:15:46;;;;;;;3.20;0.82;;;16.60;99.90;;;;;;5029298;28;20021;-83
2023/10/05 13:18:21;;;;;;;4.65;2.15;;;16.50;99.90;;;;;;5032083;28;20021;-83